SEBI

Registration No.

INH000000305

Ip Address Lookup

So far visitors:

customizable counter

TRIAL

TRIAL

SEND SMS FOR TRIAL

EQUITY - COMMODITY OR BOTH

TO

 09920033678

AND GET TRIAL

 

SEBI Registration No.: INH000000305 *****

* Commodity: 9500/month * Equity: 6000/month


* Gold Package: 7000 * Gold-Silver Package: 8100
*Crude-NG-Copper-Nickel Package: 6000


To See Past Performance, Click Here

For TRIAL / Registration,

click here

Past Performance >> Commodity
 
Search
 
Entry Start Date Entry End Date
Exit Start Date Exit End Date
Scrip Name Contract
Package
 

Packages: Precious Metals - Energy and Base Metals - Profit is calculated on basis of 1 lot per call

Package: Equity calls: Profit is calculated as follows:

1. If the scrip is in F & O then 1 lot is counted otherwise

2. Trade of Rs.1,50,000/- per call is counted.

 
Page: ( 1 2 3 4 5 6 7 8 9 10 11 12 13 14 15 16 17 18 19 20 21 22 23 24 25 26 27 28 29 30 31 32 33 34 35 36 37 38 39 40 41 42 43 44 45 46 47 48 49 50 51 52 53 54 55 56 57 58 59 60 61 62 63 64 65 66 67 68 69 70 71 72 73 ) [Current Page: 58]
Displaying 4276 to 4350   Calls
Entry Date Type Scrip Entry Price (Rs) T1
(Rs)
T2
(Rs)
T3
(Rs)
Stop Loss
(Rs)
Exit Date Exit Rate
(Rs)
Profit
(Rs)
 
30-06-14 Buy Above TECH MAH 2135 2160 2180 2200 2100 30-06-14 2156 2625.00 More
27-06-14 Sell Below ICICI Bank 1410 1400 1390 1380 1421 27-06-14 1391 4750.00 More
25-06-14 Buy Above CESC 639 650 660 --- 630 25-06-14 630 -4500.00 More
25-06-14 Buy Above NTPC 156.50 159 162 --- 154 26-06-14 154 -5000.00 More
24-06-14 Buy Above Bharti Airtel 345 348 350 355 342 24-06-14 342 -3000.00 More
24-06-14 Buy Above VOLTAS 216 219 222 --- 214 24-06-14 222 12000.00 More
23-06-14 Buy Above ZEEL 288 294 298 305 281 26-06-14 293.50 5500.00 More
23-06-14 Buy Above Petronet LNG 170 174 177 180 166 24-06-14 180 20000.00 More
20-06-14 Buy Above 327 331 335 340 323 20-06-14 323 -8000.00 More
18-06-14 Buy Above Tata Steel 534 539 545 --- 527 18-06-14 541 7000.00 More
18-06-14 Buy Above Coal India 402 407 411 --- 397 18-06-14 397 -5000.00 More
17-06-14 Buy Above GRASIM 3610 3650 3680 3720 3570 17-06-14 3570 -5000.00 More
17-06-14 Buy Above LICHSGFIN 313 317 323 --- 309 17-06-14 323 10000.00 More
16-06-14 Sell Below AXIS BANK 1800 1780 1770 1750 1830 16-06-14 1755 11250.00 More
13-06-14 Buy Above HDFC 985 995 1000 1010 970 16-06-14 970 -3750.00 More
13-06-14 Buy Above SUN PHARMA 635 645 655 665 625 17-06-14 655 10000.00 More
12-06-14 Buy Above TCS 2215 2235 2250 2270 2190 12-06-14 2190 -3125.00 More
12-06-14 Buy Above Havells India 1175 1190 1200 1215 1160 12-06-14 1198 5750.00 More
11-06-14 Buy JSWSteel 1320 1335 1345 1355 1300 11-06-14 1331 2750.00 More
09-06-14 Buy Above TataComm 377 385 390 395 370 09-06-14 390 13000.00 More
09-06-14 Buy Above HindZinc 176 180 185 190 171 09-06-14 184 16000.00 More
06-06-14 Buy Above SAIL 107.50 110 112 115 104 09-06-14 113.50 24000.00 More
06-06-14 Buy Above AXIS BANK 1950 1965 1975 1985 1935 06-06-14 1975 6250.00 More
05-06-14 Buy Above Century Textiles 540 547 550 555 534 06-06-14 555 15000.00 More
04-06-14 Buy Above DLF 222 226 230 --- 217 05-06-14 217 -10000.00 More
04-06-14 Buy Above GRASIM 3350 3400 3420 3450 3290 05-06-14 3425 9375.00 More
03-06-14 Buy Above Ambuja Cement 225 229 232 235 220 05-06-14 235 20000.00 More
03-06-14 Buy Above RELIANCE CAPITAL 591 600 605 --- 586 03-06-14 586 -5000.00 More
02-06-14 Buy Above ACC 1350 1360 1370 1390 1335 02-06-14 1390 10000.00 More
30-05-14 Buy Above Dr Reddy 2405 2425 2450 2470 2380 30-05-14 2465 7500.00 More
30-05-14 Sell Below INFY 2940 2910 2890 2850 2985 02-06-14 2985 -5625.00 More
29-05-14 Sell Below ZEEL 268 265 260 --- 272 29-05-14 260 8000.00 More
29-05-14 Sell Below JINDAL STEEL 305 300 295 --- 311 29-05-14 295 10000.00 More
28-05-14 Buy Above AURO PHARMA 645 655 660 670 634 28-05-14 655 5000.00 More
27-05-14 Buy Above 1570 1590 1610 1630 1540 28-05-14 1603 8250.00 More
26-05-14 Buy Above Maruti 2405 2425 2440 2460 2385 26-05-14 2460 6875.00 More
26-05-14 Buy Above BATA 1215 1230 1240 1250 1195 26-05-14 1195 -5000.00 More
23-05-14 Buy Above IDFC 139 142 145 150 135 26-05-14 147 16000.00 More
22-05-14 Buy Above IFCI 37.50 39 41 --- 36 23-05-14 41 35000.00 More
21-05-14 Buy Above ZEEL 292 296 300 --- 287 21-05-14 296 4000.00 More
20-05-14 Buy Above SAIL 88 92 94 96 84 20-05-14 93 20000.00 More
20-05-14 Buy Above Adani Power 60.50 62 64 66 57.50 23-05-14 66 44000.00 More
19-05-14 Buy Above BHEL 235 240 245 255 230 19-05-14 255 40000.00 More
19-05-14 Buy Above 830 840 850 860 815 19-05-14 815 -7500.00 More
15-05-14 Buy Above Andhra Bank 73.50 76 78 80 70 15-05-14 75.50 8000.00 More
15-05-14 Buy Above BOI 278 285 290 295 270 15-05-14 270 -8000.00 More
15-05-14 Buy Above LICHSGFIN 307 315 325 335 295 19-05-14 335 28000.00 More
13-05-14 Buy Above M&M 1146 1155 1165 1185 1128 13-05-14 1183 9250.00 More
13-05-14 Buy Above HERO MOTOR 2310 2350 2370 2410 2275 13-05-14 2410 12500.00 More
13-05-14 Buy Above RELIANCE 1040 1050 1060 1075 1020 16-05-14 1075 8750.00 More
12-05-14 Buy Above RELIANCE 1000 1010 1020 1030 988 12-05-14 1030 7500.00 More
12-05-14 Buy Above ExideInd 118 120 122 125 116 14-05-14 124 12000.00 More
12-05-14 Buy Above 375 380 385 --- 371 12-05-14 385 10000.00 More
09-05-14 Buy Above ICICI Bank 1297 1310 1320 --- 1286 09-05-14 1320 5750.00 More
09-05-14 Sell Below 269 265 260 255 273 09-05-14 264.50 9000.00 More
08-05-14 Buy Above Arvind 193 196 200 --- 190 08-05-14 199.50 13000.00 More
07-05-14 Buy Above Allahabad Bank 105.50 108 110 112 103 07-05-14 103 -10000.00 More
06-05-14 Buy Above JSWSteel 1118 1130 1140 --- 1108 07-05-14 1108 -2500.00 More
06-05-14 Buy Above IDEA 133 136 140 --- 131 06-05-14 131 -4000.00 More
05-05-14 Buy Above 1020 1030 1040 1050 1005 05-05-14 1029 2250.00 More
02-05-14 Sell Below Hindalco 133 130 127 124 136 05-05-14 136 -6000.00 More
30-04-14 Buy Above HDFC 900 910 920 930 888 02-05-14 918 4500.00 More
30-04-14 Sell Below SIEMENS 715 700 690 680 730 30-04-14 688 13500.00 More
29-04-14 Buy Above SBI 2115 2135 2150 --- 2097 29-04-14 2097 -2250.00 More
28-04-14 Buy Above M&M 1075 1085 1095 1105 1065 30-04-14 1098 5750.00 More
25-04-14 Buy Above ICICI Bank 1305 1315 1325 1340 1290 25-04-14 1319 3500.00 More
22-04-14 Buy Above Maruti 2005 2020 2040 2060 1990 22-04-14 1990 -3750.00 More
22-04-14 Sell Below PNB MARCH 120 CALL 599 595 590 585 602 22-04-14 595 2000.00 More
21-04-14 Buy Above TCS 2230 2250 2270 2300 2200 22-04-14 2252 2750.00 More
21-04-14 Buy Above 375 378 380 385 372 22-04-14 385 10000.00 More
17-04-14 Buy Above M&M 985 995 1005 --- 975 17-04-14 1004 4750.00 More
17-04-14 Buy Above BOI 217 221 225 230 213 17-04-14 213 -8000.00 More
16-04-14 Buy Above Crompton Greaves 181 185 188 192 177 16-04-14 185.50 18000.00 More
15-04-14 Sell Below AXIS BANK 1485 1470 1460 1450 1495 15-04-14 1450 8750.00 More
11-04-14 Buy Above TATA MOTORS 435 440 445 450 431 11-04-14 439.50 4500.00 More
Page wise profit 498875.00 Rs
Profit 17672687.75 Rs
TRIAL

TRIAL

SEND SMS FOR TRIAL

EQUITY - COMMODITY OR BOTH

TO

 09920033678

AND GET TRIAL